Time;durP1;ratioP1;P1;durP2;ratioP2;P2;SDS_P1;SDS_P2;PMS_P1;PMS_P2;Temp;Humidity;BMP_temperature;BMP_pressure;BME280_temperature;BME280_humidity;BME280_pressure;Samples;Min_cycle;Max_cycle;Signal;HPM_P1;HPM_P2
2023/06/14 00:01:25;;;;;;;12.57;8.90;;;19.00;94.70;;;;;;5030810;28;21393;-70
2023/06/14 00:03:50;;;;;;;8.73;8.03;;;19.00;94.70;;;;;;5030706;28;20218;-70
2023/06/14 00:06:17;;;;;;;10.10;9.10;;;19.00;94.80;;;;;;5031107;28;20256;-70
2023/06/14 00:08:42;;;;;;;8.90;8.10;;;18.90;95.00;;;;;;5030922;28;20256;-70
2023/06/14 00:11:09;;;;;;;9.43;8.17;;;18.90;94.90;;;;;;5030813;28;21245;-70
2023/06/14 00:13:34;;;;;;;8.00;7.30;;;18.90;95.00;;;;;;5028827;28;20273;-70
2023/06/14 00:16:00;;;;;;;8.97;8.07;;;18.90;95.00;;;;;;5031049;28;20509;-69
2023/06/14 00:18:29;;;;;;;8.53;7.73;;;18.80;95.30;;;;;;5030874;28;20206;-69
2023/06/14 00:20:55;;;;;;;10.27;8.70;;;18.80;95.20;;;;;;5030575;28;20754;-69
2023/06/14 00:23:21;;;;;;;8.70;7.97;;;18.80;95.00;;;;;;5029737;28;20487;-69
2023/06/14 00:25:47;;;;;;;9.20;8.30;;;18.80;95.10;;;;;;5031049;28;20445;-69
2023/06/14 00:28:13;;;;;;;8.93;8.10;;;18.80;95.00;;;;;;5031201;28;20958;-69
2023/06/14 00:30:39;;;;;;;9.93;8.40;;;18.80;95.10;;;;;;5031129;28;20953;-70
2023/06/14 00:33:05;;;;;;;8.87;7.63;;;18.80;94.90;;;;;;5030139;28;20447;-71
2023/06/14 00:35:31;;;;;;;8.60;7.70;;;18.80;94.70;;;;;;5031002;28;20417;-71
2023/06/14 00:37:56;;;;;;;8.07;7.37;;;18.80;94.60;;;;;;5031072;28;20565;-71
2023/06/14 00:40:22;;;;;;;8.90;8.00;;;18.80;94.30;;;;;;5031034;28;20186;-71
2023/06/14 00:42:48;;;;;;;8.37;7.63;;;18.80;94.30;;;;;;5030329;28;20214;-71
2023/06/14 00:45:14;;;;;;;8.10;7.30;;;18.90;94.20;;;;;;5030883;28;20658;-71
2023/06/14 00:47:42;;;;;;;8.93;8.10;;;18.80;94.10;;;;;;5030837;28;20179;-71
2023/06/14 00:50:09;;;;;;;8.83;8.03;;;18.80;94.30;;;;;;5029945;28;20252;-71
2023/06/14 00:52:36;;;;;;;7.90;7.20;;;18.80;94.60;;;;;;5030119;28;20911;-71
2023/06/14 00:55:01;;;;;;;7.90;7.20;;;18.70;94.60;;;;;;5030237;28;20424;-71
2023/06/14 00:57:29;;;;;;;7.90;7.10;;;18.70;94.70;;;;;;5030529;28;20771;-71
2023/06/14 00:59:55;;;;;;;11.73;7.30;;;18.70;94.70;;;;;;5030611;28;20183;-71
2023/06/14 01:02:21;;;;;;;7.43;6.37;;;18.80;94.30;;;;;;5029829;28;20422;-71
2023/06/14 01:04:49;;;;;;;6.97;6.40;;;18.70;94.30;;;;;;5029862;28;20520;-71
2023/06/14 01:07:53;;;;;;;8.23;7.13;;;18.70;94.20;;;;;;5030267;28;20500;-71
2023/06/14 01:10:47;;;;;;;8.20;7.40;;;18.70;94.40;;;;;;5028861;28;20516;-71
2023/06/14 01:13:13;;;;;;;10.30;6.47;;;18.70;94.10;;;;;;5029299;28;20417;-71
2023/06/14 01:15:40;;;;;;;7.67;6.83;;;18.70;94.20;;;;;;5030068;28;20417;-71
2023/06/14 01:18:07;;;;;;;7.63;6.90;;;18.70;94.20;;;;;;5028696;28;20206;-71
2023/06/14 01:20:36;;;;;;;10.90;6.73;;;18.60;94.20;;;;;;5029699;28;20494;-71
2023/06/14 01:23:02;;;;;;;7.97;7.17;;;18.60;94.30;;;;;;5029103;28;20500;-71
2023/06/14 01:25:28;;;;;;;7.17;6.57;;;18.50;94.40;;;;;;5029826;28;20448;-71
2023/06/14 01:27:57;;;;;;;7.63;6.90;;;18.60;94.30;;;;;;5029876;28;20207;-71
2023/06/14 01:30:25;;;;;;;7.40;6.80;;;18.50;94.10;;;;;;5029785;28;20504;-71
2023/06/14 01:32:53;;;;;;;7.63;6.93;;;18.50;94.20;;;;;;5028921;28;20471;-71
2023/06/14 01:35:19;;;;;;;8.60;7.70;;;18.50;94.50;;;;;;5029547;28;20753;-71
2023/06/14 01:37:47;;;;;;;7.27;6.57;;;18.40;94.70;;;;;;5029530;28;20953;-71
2023/06/14 01:40:15;;;;;;;8.97;6.40;;;18.40;94.80;;;;;;5029626;28;20417;-71
2023/06/14 01:42:42;;;;;;;7.67;6.73;;;18.30;95.00;;;;;;5028941;28;20449;-71
2023/06/14 01:45:10;;;;;;;7.63;6.97;;;18.30;94.90;;;;;;5029329;28;20410;-71
2023/06/14 01:47:36;;;;;;;7.83;6.90;;;18.30;95.00;;;;;;5029401;28;20444;-71
2023/06/14 01:50:03;;;;;;;7.30;6.70;;;18.30;94.90;;;;;;5028117;28;20409;-71
2023/06/14 01:52:29;;;;;;;7.73;7.03;;;18.20;95.00;;;;;;5028703;28;20508;-71
2023/06/14 01:54:55;;;;;;;7.73;7.00;;;18.20;95.10;;;;;;5029117;28;20861;-71
2023/06/14 01:57:22;;;;;;;7.90;6.63;;;18.20;95.20;;;;;;5029219;28;20190;-71
2023/06/14 01:59:48;;;;;;;7.57;6.73;;;18.20;95.30;;;;;;5028062;28;20179;-71
2023/06/14 02:02:14;;;;;;;7.60;6.90;;;18.20;95.30;;;;;;5028469;28;20832;-71
2023/06/14 02:04:41;;;;;;;6.87;6.27;;;18.10;95.30;;;;;;5028770;28;20953;-71
2023/06/14 02:07:07;;;;;;;6.93;6.33;;;18.10;95.50;;;;;;5029032;28;20413;-70
2023/06/14 02:09:33;;;;;;;7.53;6.40;;;18.00;95.50;;;;;;5029024;28;20954;-70
2023/06/14 02:11:59;;;;;;;7.60;6.80;;;18.00;95.70;;;;;;5028391;28;20413;-70
2023/06/14 02:14:26;;;;;;;7.80;6.67;;;17.90;96.10;;;;;;5028864;28;20410;-70
2023/06/14 02:16:52;;;;;;;9.43;7.00;;;17.90;96.20;;;;;;5024416;28;20179;-70
2023/06/14 02:19:19;;;;;;;8.43;6.77;;;17.90;96.00;;;;;;5007966;28;20445;-70
2023/06/14 02:21:45;;;;;;;6.67;6.07;;;17.90;95.90;;;;;;5008624;28;20419;-70
2023/06/14 02:24:11;;;;;;;7.57;6.70;;;17.90;95.70;;;;;;5008879;28;20978;-70
2023/06/14 02:26:43;;;;;;;7.83;6.73;;;17.90;95.60;;;;;;5009129;28;20455;-70
2023/06/14 02:29:10;;;;;;;6.67;6.07;;;17.90;95.90;;;;;;5009197;28;20347;-70
2023/06/14 02:31:37;;;;;;;7.30;6.67;;;17.90;96.10;;;;;;5008389;28;21111;-70
2023/06/14 02:34:03;;;;;;;7.80;7.10;;;17.90;96.00;;;;;;5009042;28;20414;-70
2023/06/14 02:36:31;;;;;;;7.40;6.80;;;17.90;96.10;;;;;;5009106;28;20501;-70
2023/06/14 02:38:57;;;;;;;8.03;7.20;;;17.80;96.10;;;;;;5009130;28;20612;-70
2023/06/14 02:41:25;;;;;;;7.63;6.83;;;17.80;96.10;;;;;;5008350;28;20448;-70
2023/06/14 02:43:52;;;;;;;8.57;6.37;;;17.80;96.20;;;;;;5008783;28;20214;-70
2023/06/14 02:46:18;;;;;;;9.80;7.10;;;17.70;96.10;;;;;;5012665;28;20413;-70
2023/06/14 02:48:43;;;;;;;11.47;6.50;;;17.70;96.40;;;;;;5013179;28;20480;-70
2023/06/14 02:51:09;;;;;;;6.73;6.13;;;17.70;96.60;;;;;;5011339;28;20178;-70
2023/06/14 02:53:36;;;;;;;7.00;6.30;;;17.60;96.40;;;;;;5012252;28;20237;-70
2023/06/14 02:56:03;;;;;;;9.67;6.60;;;17.60;96.30;;;;;;5013170;28;20229;-70
2023/06/14 02:58:29;;;;;;;7.60;6.53;;;17.60;96.40;;;;;;5011402;28;20974;-70
2023/06/14 03:00:55;;;;;;;6.73;6.00;;;17.50;96.90;;;;;;5012930;28;20422;-70
2023/06/14 03:03:21;;;;;;;6.73;6.10;;;17.50;96.90;;;;;;5011700;28;20527;-70
2023/06/14 03:05:49;;;;;;;7.93;6.20;;;17.50;97.00;;;;;;5012905;28;20209;-70
2023/06/14 03:08:19;;;;;;;6.87;6.27;;;17.50;96.80;;;;;;5012526;28;20504;-70
2023/06/14 03:10:48;;;;;;;7.90;5.90;;;17.40;96.70;;;;;;5012753;28;20501;-70
2023/06/14 03:13:15;;;;;;;7.93;6.73;;;17.40;96.60;;;;;;5011658;28;20836;-70
2023/06/14 03:15:44;;;;;;;7.57;6.77;;;17.40;96.40;;;;;;5011327;28;20458;-71
2023/06/14 03:18:11;;;;;;;7.00;6.30;;;17.40;96.60;;;;;;5027240;28;20528;-72
2023/06/14 03:20:38;;;;;;;7.00;6.33;;;17.30;96.60;;;;;;5032320;28;20778;-70
2023/06/14 03:23:05;;;;;;;6.47;5.80;;;17.30;96.60;;;;;;5030987;28;20553;-72
2023/06/14 03:25:32;;;;;;;6.10;5.20;;;17.30;96.50;;;;;;5032052;28;20417;-70
2023/06/14 03:27:58;;;;;;;5.83;5.33;;;17.30;96.40;;;;;;5032109;28;20483;-71
2023/06/14 03:30:24;;;;;;;6.33;5.73;;;17.30;96.50;;;;;;5032062;28;20899;-70
2023/06/14 03:32:52;;;;;;;8.27;5.90;;;17.30;96.40;;;;;;5031051;28;20217;-70
2023/06/14 03:35:19;;;;;;;5.50;4.90;;;17.20;96.50;;;;;;5031719;28;20996;-70
2023/06/14 03:37:46;;;;;;;5.87;5.30;;;17.30;96.40;;;;;;5031819;28;20540;-71
2023/06/14 03:40:13;;;;;;;6.67;5.63;;;17.30;96.40;;;;;;5031896;28;20448;-70
2023/06/14 03:42:39;;;;;;;6.57;5.87;;;17.30;96.80;;;;;;5031026;28;20947;-70
2023/06/14 03:45:08;;;;;;;6.20;5.60;;;17.30;97.00;;;;;;5031605;28;20424;-71
2023/06/14 03:47:34;;;;;;;6.37;5.77;;;17.30;97.10;;;;;;5031530;28;20496;-70
2023/06/14 03:50:01;;;;;;;11.37;6.17;;;17.30;97.10;;;;;;5030280;28;20449;-70
2023/06/14 03:52:27;;;;;;;22.03;7.20;;;17.20;97.10;;;;;;5030833;28;20417;-70
2023/06/14 03:54:53;;;;;;;6.07;5.53;;;17.30;97.10;;;;;;5031372;28;20504;-70
2023/06/14 03:57:19;;;;;;;6.50;5.33;;;17.20;97.30;;;;;;5030092;28;20405;-71
2023/06/14 03:59:46;;;;;;;5.97;5.47;;;17.20;97.40;;;;;;5031638;28;21045;-71
2023/06/14 04:02:15;;;;;;;6.97;5.80;;;17.10;98.00;;;;;;5030754;28;20413;-72
2023/06/14 04:04:44;;;;;;;6.10;5.60;;;17.10;97.60;;;;;;5031499;28;20455;-70
2023/06/14 04:07:13;;;;;;;5.57;5.10;;;17.10;97.20;;;;;;5031422;28;20429;-70
2023/06/14 04:09:39;;;;;;;5.90;5.37;;;17.20;96.90;;;;;;5031261;28;20441;-70
2023/06/14 04:12:06;;;;;;;6.87;5.33;;;17.20;96.90;;;;;;5030742;28;20479;-72
2023/06/14 04:14:34;;;;;;;5.00;4.50;;;17.20;96.90;;;;;;5030824;28;20800;-70
2023/06/14 04:17:00;;;;;;;6.20;5.60;;;17.20;96.80;;;;;;5025605;28;20454;-71
2023/06/14 04:19:26;;;;;;;7.30;5.43;;;17.20;96.80;;;;;;5011231;28;20846;-71
2023/06/14 04:21:53;;;;;;;5.70;5.10;;;17.20;96.80;;;;;;5010694;28;20422;-71
2023/06/14 04:24:18;;;;;;;5.17;4.67;;;17.20;96.70;;;;;;5010753;28;20457;-71
2023/06/14 04:26:47;;;;;;;5.30;4.80;;;17.20;96.90;;;;;;5011254;28;20421;-70
2023/06/14 04:29:16;;;;;;;4.93;4.43;;;17.20;96.90;;;;;;5011015;28;20218;-70
2023/06/14 04:31:46;;;;;;;5.70;4.70;;;17.20;96.90;;;;;;5010718;28;20513;-71
2023/06/14 04:34:21;;;;;;;6.17;4.60;;;17.20;97.00;;;;;;5010659;28;21247;-70
2023/06/14 04:36:52;;;;;;;12.53;5.30;;;17.20;97.10;;;;;;5011246;28;20414;-71
2023/06/14 04:39:19;;;;;;;5.90;4.93;;;17.30;96.90;;;;;;5010846;28;20434;-71
2023/06/14 04:41:45;;;;;;;5.00;4.50;;;17.30;96.90;;;;;;5010245;28;20446;-70
2023/06/14 04:44:12;;;;;;;5.00;4.50;;;17.30;96.80;;;;;;5017126;28;20504;-71
2023/06/14 04:46:43;;;;;;;5.40;4.83;;;17.40;96.70;;;;;;5027280;28;20463;-71
2023/06/14 04:49:10;;;;;;;5.60;5.10;;;17.40;96.70;;;;;;5024746;28;20452;-70
2023/06/14 04:51:36;;;;;;;5.13;4.27;;;17.50;96.70;;;;;;5024993;28;20449;-70
2023/06/14 04:54:03;;;;;;;8.00;5.00;;;17.50;96.80;;;;;;5028671;28;20471;-71
2023/06/14 04:56:30;;;;;;;5.93;4.53;;;17.50;96.60;;;;;;5027729;28;20833;-69
2023/06/14 04:58:56;;;;;;;5.90;4.30;;;17.50;96.70;;;;;;5029956;28;20437;-72
2023/06/14 05:01:23;;;;;;;5.77;5.00;;;17.50;96.70;;;;;;5029682;28;20451;-70
2023/06/14 05:03:49;;;;;;;7.07;4.60;;;17.50;96.60;;;;;;5029798;28;20974;-70
2023/06/14 05:06:15;;;;;;;8.90;4.80;;;17.60;96.60;;;;;;5029261;28;20494;-71
2023/06/14 05:08:41;;;;;;;5.20;4.70;;;17.60;96.50;;;;;;5029697;28;20443;-70
2023/06/14 05:11:07;;;;;;;7.50;4.30;;;17.60;96.60;;;;;;5030220;28;20413;-70
2023/06/14 05:13:34;;;;;;;5.40;4.37;;;17.80;96.40;;;;;;5026504;28;20579;-69
2023/06/14 05:16:00;;;;;;;7.30;4.60;;;17.80;96.10;;;;;;5030029;28;20190;-71
2023/06/14 05:18:26;;;;;;;5.60;4.00;;;17.90;96.00;;;;;;5029351;28;20480;-71
2023/06/14 05:20:52;;;;;;;5.27;4.73;;;18.00;96.00;;;;;;5030032;28;20909;-71
2023/06/14 05:23:17;;;;;;;4.83;4.27;;;18.00;96.40;;;;;;5028899;28;20221;-70
2023/06/14 05:25:44;;;;;;;5.77;4.20;;;18.10;95.90;;;;;;5030114;28;20174;-69
2023/06/14 05:28:11;;;;;;;7.57;4.23;;;18.20;95.80;;;;;;5029736;28;20568;-70
2023/06/14 05:30:38;;;;;;;8.53;5.10;;;18.20;96.00;;;;;;5028182;28;20934;-69
2023/06/14 05:33:03;;;;;;;5.47;4.80;;;18.30;95.60;;;;;;5028212;28;20409;-70
2023/06/14 05:35:29;;;;;;;7.30;4.63;;;18.40;95.80;;;;;;5029699;28;20417;-71
2023/06/14 05:37:55;;;;;;;4.60;4.20;;;18.50;95.70;;;;;;5024464;28;20277;-70
2023/06/14 05:40:21;;;;;;;6.00;4.80;;;18.60;95.70;;;;;;5008948;28;20179;-69
2023/06/14 05:42:46;;;;;;;5.50;4.70;;;18.60;96.20;;;;;;5011067;28;20214;-70
2023/06/14 05:45:12;;;;;;;5.07;4.53;;;18.70;96.20;;;;;;5027302;28;20231;-70
2023/06/14 05:47:38;;;;;;;8.80;5.33;;;18.80;95.70;;;;;;5029337;28;20224;-70
2023/06/14 05:50:04;;;;;;;4.80;4.27;;;18.80;95.50;;;;;;5029483;28;21012;-70
2023/06/14 05:52:31;;;;;;;6.50;4.37;;;18.90;95.50;;;;;;5025752;28;20183;-71
2023/06/14 05:54:56;;;;;;;6.53;4.53;;;19.10;95.30;;;;;;5023850;28;20436;-70
2023/06/14 05:57:22;;;;;;;5.00;4.30;;;19.20;94.80;;;;;;5027069;28;20422;-69
2023/06/14 05:59:48;;;;;;;4.80;4.30;;;19.30;95.20;;;;;;5023928;28;20190;-71
2023/06/14 06:02:14;;;;;;;4.57;4.17;;;19.30;95.20;;;;;;5028471;28;20178;-71
2023/06/14 06:04:39;;;;;;;6.30;4.67;;;19.40;94.40;;;;;;5024984;28;20236;-70
2023/06/14 06:07:05;;;;;;;5.73;4.20;;;19.60;93.90;;;;;;5024568;28;20190;-71
2023/06/14 06:09:31;;;;;;;5.80;4.03;;;19.60;93.40;;;;;;5025110;28;20206;-71
2023/06/14 06:11:57;;;;;;;4.90;4.20;;;19.80;93.30;;;;;;5022772;28;20233;-71
2023/06/14 06:14:22;;;;;;;5.40;4.03;;;19.80;93.40;;;;;;5023841;28;20209;-70
2023/06/14 06:16:48;;;;;;;4.80;4.30;;;19.80;93.90;;;;;;5027208;28;20178;-71
2023/06/14 06:19:15;;;;;;;5.73;4.00;;;19.80;93.40;;;;;;5022255;28;20671;-71
2023/06/14 06:21:40;;;;;;;6.20;3.87;;;19.80;94.00;;;;;;5027676;28;20426;-71
2023/06/14 06:24:06;;;;;;;3.73;3.43;;;19.90;93.30;;;;;;5028465;28;20549;-71
2023/06/14 06:26:32;;;;;;;4.63;3.43;;;20.00;92.80;;;;;;5028968;28;20182;-71
2023/06/14 06:28:59;;;;;;;6.27;3.40;;;20.10;92.60;;;;;;5027965;28;20198;-70
2023/06/14 06:31:25;;;;;;;4.33;3.60;;;20.20;93.00;;;;;;5028283;28;20414;-71
2023/06/14 06:33:51;;;;;;;3.90;3.43;;;20.20;93.30;;;;;;5028423;28;20424;-71
2023/06/14 06:36:17;;;;;;;4.57;3.30;;;20.30;92.90;;;;;;5028953;28;20488;-71
2023/06/14 06:38:42;;;;;;;3.83;3.43;;;20.40;92.20;;;;;;5028721;28;20512;-71
2023/06/14 06:41:08;;;;;;;3.77;3.13;;;20.40;92.40;;;;;;5028698;28;20240;-71
2023/06/14 06:43:34;;;;;;;4.23;3.50;;;20.50;92.60;;;;;;5028057;28;20221;-71
2023/06/14 06:45:59;;;;;;;4.13;3.50;;;20.60;92.10;;;;;;5028786;28;20175;-71
2023/06/14 06:48:25;;;;;;;5.30;3.27;;;20.60;91.80;;;;;;5028600;28;20233;-71
2023/06/14 06:50:52;;;;;;;3.30;3.00;;;20.70;91.60;;;;;;5028389;28;20182;-70
2023/06/14 06:53:18;;;;;;;3.47;3.17;;;20.80;91.40;;;;;;5027904;28;20178;-71
2023/06/14 06:55:44;;;;;;;4.00;3.60;;;20.70;91.70;;;;;;5028557;28;20469;-71
2023/06/14 06:58:10;;;;;;;4.57;3.47;;;20.70;91.80;;;;;;5024009;28;20457;-71
2023/06/14 07:00:36;;;;;;;3.97;3.00;;;20.80;91.20;;;;;;5027995;28;20916;-71
2023/06/14 07:03:03;;;;;;;6.40;4.00;;;20.80;91.30;;;;;;5026927;28;20198;-71
2023/06/14 07:05:29;;;;;;;3.70;3.40;;;20.80;91.20;;;;;;5027564;28;20885;-71
2023/06/14 07:07:55;;;;;;;3.17;2.83;;;20.90;91.60;;;;;;5027676;28;20417;-71
2023/06/14 07:10:21;;;;;;;3.47;2.90;;;21.00;91.10;;;;;;5027550;28;20623;-71
2023/06/14 07:12:47;;;;;;;4.17;3.17;;;21.00;90.60;;;;;;5027002;28;20508;-71
2023/06/14 07:15:14;;;;;;;3.63;3.33;;;21.10;90.40;;;;;;5027564;28;20210;-71
2023/06/14 07:17:40;;;;;;;4.80;3.70;;;21.20;90.70;;;;;;5017453;28;20487;-71
2023/06/14 07:20:07;;;;;;;3.00;2.80;;;21.20;90.80;;;;;;5007547;28;20803;-71
2023/06/14 07:22:33;;;;;;;3.50;3.20;;;21.20;90.80;;;;;;5006840;28;20608;-71
2023/06/14 07:24:59;;;;;;;8.90;3.30;;;21.30;90.20;;;;;;5008368;28;20464;-71
2023/06/14 07:27:25;;;;;;;3.57;2.97;;;21.30;90.40;;;;;;5007884;28;20179;-71
2023/06/14 07:29:50;;;;;;;4.00;3.17;;;21.30;90.30;;;;;;5008437;28;20616;-71
2023/06/14 07:32:16;;;;;;;3.40;3.10;;;21.40;90.40;;;;;;5011245;28;20230;-71
2023/06/14 07:34:42;;;;;;;4.93;3.20;;;21.30;90.60;;;;;;5011938;28;20199;-71
2023/06/14 07:37:07;;;;;;;3.47;3.00;;;21.30;90.60;;;;;;5012354;28;20217;-71
2023/06/14 07:39:33;;;;;;;3.00;2.70;;;21.30;89.60;;;;;;5012098;28;20211;-71
2023/06/14 07:41:58;;;;;;;5.13;3.00;;;21.30;88.80;;;;;;5011525;28;20266;-71
2023/06/14 07:44:24;;;;;;;2.90;2.70;;;21.30;88.50;;;;;;5011706;28;20214;-71
2023/06/14 07:46:50;;;;;;;5.47;2.87;;;21.40;87.60;;;;;;5012037;28;20179;-71
2023/06/14 07:49:16;;;;;;;3.10;2.80;;;21.40;88.10;;;;;;5012125;28;20199;-71
2023/06/14 07:51:44;;;;;;;2.93;2.73;;;21.50;88.50;;;;;;5011368;28;20229;-71
2023/06/14 07:54:10;;;;;;;5.50;2.57;;;21.50;89.20;;;;;;5011697;28;20837;-71
2023/06/14 07:56:36;;;;;;;5.40;3.00;;;21.50;88.60;;;;;;5011834;28;20429;-71
2023/06/14 07:59:02;;;;;;;4.30;2.30;;;21.50;87.30;;;;;;5011715;28;20853;-71
2023/06/14 08:01:28;;;;;;;4.20;3.20;;;21.40;86.60;;;;;;5011025;28;20420;-71
2023/06/14 08:03:53;;;;;;;3.20;2.87;;;21.30;87.10;;;;;;5011408;28;20465;-71
2023/06/14 08:06:19;;;;;;;5.23;2.70;;;21.20;87.50;;;;;;5011682;28;20191;-71
2023/06/14 08:08:45;;;;;;;3.70;3.30;;;21.20;88.30;;;;;;5011759;28;20564;-71
2023/06/14 08:11:11;;;;;;;3.70;2.87;;;21.10;88.50;;;;;;5011386;28;20719;-71
2023/06/14 08:13:36;;;;;;;3.37;3.10;;;21.00;89.40;;;;;;5009983;28;20183;-71
2023/06/14 08:16:04;;;;;;;3.27;2.23;;;21.00;90.00;;;;;;5011484;28;20197;-71
2023/06/14 08:18:30;;;;;;;4.07;2.77;;;21.00;88.90;;;;;;5028094;28;20695;-71
2023/06/14 08:20:57;;;;;;;2.70;2.50;;;20.90;87.10;;;;;;5031091;28;20413;-71
2023/06/14 08:23:23;;;;;;;2.93;2.60;;;21.00;85.60;;;;;;5030140;28;20229;-70
2023/06/14 08:25:48;;;;;;;2.63;2.20;;;21.00;86.20;;;;;;5030833;28;20889;-71
2023/06/14 08:28:14;;;;;;;4.00;2.80;;;21.00;85.10;;;;;;5030063;28;20199;-71
2023/06/14 08:30:42;;;;;;;6.30;2.63;;;21.00;85.10;;;;;;5030896;28;20766;-71
2023/06/14 08:33:08;;;;;;;3.83;3.00;;;21.00;84.80;;;;;;5029991;28;20417;-71
2023/06/14 08:35:36;;;;;;;2.43;2.23;;;21.10;82.50;;;;;;5030794;28;21017;-71
2023/06/14 08:38:03;;;;;;;4.73;2.90;;;21.10;84.40;;;;;;5030561;28;20217;-71
2023/06/14 08:40:30;;;;;;;3.50;2.70;;;21.20;83.00;;;;;;5030832;28;20437;-71
2023/06/14 08:42:56;;;;;;;2.97;2.50;;;21.20;83.90;;;;;;5029120;28;20457;-71
2023/06/14 08:45:23;;;;;;;3.37;3.07;;;21.20;84.20;;;;;;5030453;28;20471;-71
2023/06/14 08:47:57;;;;;;;3.97;2.90;;;21.30;83.90;;;;;;5030593;28;20444;-71
2023/06/14 08:50:29;;;;;;;2.17;1.97;;;21.30;83.50;;;;;;5030681;28;20440;-71
2023/06/14 08:53:00;;;;;;;3.03;1.87;;;21.40;83.50;;;;;;5029728;28;20954;-71
2023/06/14 08:55:27;;;;;;;2.80;2.50;;;21.50;84.10;;;;;;5030377;28;20421;-71
2023/06/14 08:57:57;;;;;;;2.57;2.37;;;21.60;82.40;;;;;;5030365;28;20433;-71
2023/06/14 09:00:24;;;;;;;2.50;2.30;;;21.70;81.30;;;;;;5030607;28;20418;-71
2023/06/14 09:02:55;;;;;;;2.27;2.07;;;21.70;81.50;;;;;;5028441;28;20822;-72
2023/06/14 09:05:23;;;;;;;3.87;2.50;;;21.80;81.90;;;;;;5030221;28;20429;-71
2023/06/14 09:07:50;;;;;;;2.73;2.50;;;21.80;79.80;;;;;;5030111;28;20445;-71
2023/06/14 09:10:16;;;;;;;3.50;2.43;;;21.90;83.20;;;;;;5030305;28;20448;-71
2023/06/14 09:12:43;;;;;;;4.37;2.10;;;22.10;82.30;;;;;;5028378;28;20559;-71
2023/06/14 09:15:10;;;;;;;2.33;2.13;;;22.20;81.50;;;;;;5030325;28;20424;-71
2023/06/14 09:17:36;;;;;;;3.27;2.17;;;22.30;79.90;;;;;;5019639;28;20472;-71
2023/06/14 09:20:09;;;;;;;2.27;1.93;;;22.40;81.40;;;;;;5010377;28;20422;-71
2023/06/14 09:22:35;;;;;;;2.23;1.90;;;22.40;80.60;;;;;;5008043;28;20510;-71
2023/06/14 09:25:01;;;;;;;2.57;1.97;;;22.50;78.80;;;;;;5010036;28;20422;-71
2023/06/14 09:27:28;;;;;;;1.93;1.70;;;22.50;76.20;;;;;;5009923;28;20179;-71
2023/06/14 09:29:54;;;;;;;3.17;2.23;;;22.60;79.00;;;;;;5010090;28;20414;-71
2023/06/14 09:32:24;;;;;;;2.63;2.43;;;22.70;76.30;;;;;;5008165;28;20759;-71
2023/06/14 09:34:50;;;;;;;1.90;1.80;;;22.70;76.70;;;;;;5009814;28;20433;-71
2023/06/14 09:37:29;;;;;;;2.23;1.70;;;22.60;73.80;;;;;;5008645;28;20414;-71
2023/06/14 09:39:55;;;;;;;2.37;1.70;;;22.60;73.10;;;;;;5009853;28;20418;-71
2023/06/14 09:42:22;;;;;;;3.00;1.67;;;22.50;73.30;;;;;;5007900;28;20414;-71
2023/06/14 09:44:49;;;;;;;2.10;1.90;;;22.60;72.50;;;;;;5009652;28;20458;-72
2023/06/14 09:47:18;;;;;;;1.67;1.57;;;22.60;73.60;;;;;;5009691;28;20421;-71
2023/06/14 09:49:45;;;;;;;1.97;1.40;;;22.60;74.60;;;;;;5009950;28;20430;-72
2023/06/14 09:52:14;;;;;;;5.30;1.90;;;22.60;72.90;;;;;;5009006;28;20422;-71
2023/06/14 09:54:46;;;;;;;1.60;1.50;;;22.60;73.60;;;;;;5009463;28;20418;-71
2023/06/14 09:57:14;;;;;;;2.80;2.50;;;22.70;74.10;;;;;;5009646;28;20500;-72
2023/06/14 09:59:45;;;;;;;2.90;1.90;;;22.80;77.30;;;;;;5008507;28;20935;-71
2023/06/14 10:02:21;;;;;;;2.57;1.83;;;22.80;76.00;;;;;;5008993;28;20426;-71
2023/06/14 10:04:57;;;;;;;1.87;1.63;;;22.90;74.80;;;;;;5009752;28;20480;-71
2023/06/14 10:07:25;;;;;;;2.77;2.27;;;22.90;75.30;;;;;;5009451;28;21088;-71
2023/06/14 10:09:53;;;;;;;2.63;2.20;;;22.90;80.40;;;;;;5009454;28;20418;-71
2023/06/14 10:12:21;;;;;;;3.20;1.80;;;23.00;80.20;;;;;;5007463;28;20497;-71
2023/06/14 10:14:53;;;;;;;3.47;2.00;;;23.00;77.90;;;;;;5008062;28;20465;-71
2023/06/14 10:17:41;;;;;;;5.03;2.10;;;23.20;80.00;;;;;;5017248;28;20995;-71
2023/06/14 10:20:16;;;;;;;2.50;2.07;;;23.20;77.70;;;;;;5029114;28;20424;-71
2023/06/14 10:22:51;;;;;;;2.20;1.90;;;23.30;77.10;;;;;;5028200;28;20428;-71
2023/06/14 10:25:28;;;;;;;2.17;2.00;;;23.30;74.10;;;;;;5029067;28;20424;-72
2023/06/14 10:28:15;;;;;;;4.20;1.90;;;23.30;75.50;;;;;;5027543;28;20441;-71
2023/06/14 10:31:07;;;;;;;3.43;1.80;;;23.30;75.50;;;;;;5029307;28;20409;-72
2023/06/14 10:33:50;;;;;;;2.30;2.03;;;23.30;77.20;;;;;;5028324;28;20429;-71
2023/06/14 10:36:22;;;;;;;2.33;2.10;;;23.40;77.60;;;;;;5026104;28;20502;-71
2023/06/14 10:39:14;;;;;;;7.00;2.20;;;23.40;80.20;;;;;;5026794;28;20452;-71
2023/06/14 10:41:41;;;;;;;4.43;2.37;;;23.40;79.20;;;;;;5028189;28;20491;-71
2023/06/14 10:44:13;;;;;;;2.10;1.90;;;23.40;78.60;;;;;;5028381;28;20496;-71
2023/06/14 10:46:54;;;;;;;2.30;1.90;;;23.30;78.80;;;;;;5028796;28;20422;-71
2023/06/14 10:49:41;;;;;;;2.77;2.10;;;23.40;77.20;;;;;;5028793;28;20437;-71
2023/06/14 10:52:20;;;;;;;2.23;1.90;;;23.50;75.80;;;;;;5018115;28;20424;-71
2023/06/14 10:55:06;;;;;;;1.97;1.87;;;23.40;74.40;;;;;;5028172;28;20432;-71
2023/06/14 10:57:35;;;;;;;1.63;1.53;;;23.50;78.60;;;;;;5028401;28;20436;-72
2023/06/14 11:00:16;;;;;;;2.40;2.20;;;23.50;76.30;;;;;;5028504;28;21173;-71
2023/06/14 11:03:07;;;;;;;2.13;1.93;;;23.50;79.20;;;;;;5027566;28;20425;-72
2023/06/14 11:05:52;;;;;;;2.70;2.20;;;23.60;79.60;;;;;;5028979;28;20425;-71
2023/06/14 11:08:28;;;;;;;2.90;1.90;;;23.60;79.70;;;;;;5032162;28;20515;-71
2023/06/14 11:10:59;;;;;;;3.00;1.87;;;23.70;79.30;;;;;;5026473;28;20436;-71
2023/06/14 11:13:26;;;;;;;4.93;1.80;;;23.70;77.70;;;;;;5031334;28;20515;-71
2023/06/14 11:15:57;;;;;;;2.60;1.90;;;23.70;79.40;;;;;;5032325;28;20478;-71
2023/06/14 11:18:27;;;;;;;2.23;1.80;;;23.80;77.00;;;;;;5032152;28;20456;-72
2023/06/14 11:20:53;;;;;;;2.20;2.00;;;23.80;79.30;;;;;;5032097;28;20428;-71
2023/06/14 11:23:19;;;;;;;2.10;1.90;;;23.90;79.20;;;;;;5030869;28;20537;-71
2023/06/14 11:25:51;;;;;;;2.77;1.93;;;23.90;78.20;;;;;;5032252;28;20474;-71
2023/06/14 11:28:19;;;;;;;5.93;2.03;;;23.90;77.90;;;;;;5029322;28;20437;-71
2023/06/14 11:30:46;;;;;;;3.30;1.90;;;23.90;77.00;;;;;;5031931;28;20429;-71
2023/06/14 11:33:18;;;;;;;4.10;2.10;;;23.90;76.60;;;;;;5030749;28;20429;-72
2023/06/14 11:35:44;;;;;;;3.43;2.13;;;24.00;77.00;;;;;;5031873;28;20896;-71
2023/06/14 11:38:10;;;;;;;7.97;2.60;;;24.00;76.70;;;;;;5030539;28;20475;-71
2023/06/14 11:40:38;;;;;;;4.50;2.57;;;24.10;79.70;;;;;;5031727;28;20459;-71
2023/06/14 11:43:04;;;;;;;2.30;2.10;;;24.10;76.20;;;;;;5030513;28;20465;-71
2023/06/14 11:45:31;;;;;;;2.53;2.30;;;24.20;74.40;;;;;;5031610;28;20925;-71
2023/06/14 11:48:00;;;;;;;2.87;2.43;;;24.20;74.00;;;;;;5031563;28;20572;-71
2023/06/14 11:50:27;;;;;;;3.97;2.77;;;24.20;76.00;;;;;;5031726;28;20409;-71
2023/06/14 11:53:03;;;;;;;3.53;3.20;;;24.20;74.80;;;;;;5022817;28;20489;-71
2023/06/14 11:55:29;;;;;;;3.33;2.80;;;24.20;77.50;;;;;;5031394;28;20419;-71
2023/06/14 11:57:55;;;;;;;3.23;2.90;;;24.30;74.10;;;;;;5031377;28;20799;-71
2023/06/14 12:00:25;;;;;;;5.00;3.07;;;24.40;77.00;;;;;;5031377;28;20228;-71
2023/06/14 12:02:55;;;;;;;4.87;2.43;;;24.40;72.00;;;;;;5030458;28;20463;-71
2023/06/14 12:05:22;;;;;;;4.20;3.00;;;24.40;74.10;;;;;;5031011;28;20437;-71
2023/06/14 12:07:48;;;;;;;3.30;2.97;;;24.40;77.50;;;;;;5031074;28;20444;-71
2023/06/14 12:10:14;;;;;;;3.53;2.87;;;24.30;74.80;;;;;;5031172;28;20429;-72
2023/06/14 12:12:40;;;;;;;4.07;3.07;;;24.40;76.10;;;;;;5030237;28;20432;-71
2023/06/14 12:15:07;;;;;;;4.00;2.40;;;24.40;77.40;;;;;;5030686;28;20425;-71
2023/06/14 12:17:38;;;;;;;3.40;3.10;;;24.40;74.90;;;;;;5028871;28;20770;-71
2023/06/14 12:20:16;;;;;;;4.37;3.20;;;24.50;72.90;;;;;;5031191;28;20475;-71
2023/06/14 12:22:56;;;;;;;2.97;2.70;;;24.50;75.70;;;;;;5030048;28;20922;-72
2023/06/14 12:25:27;;;;;;;4.00;3.40;;;24.50;75.20;;;;;;5026740;28;20421;-71
2023/06/14 12:27:56;;;;;;;6.40;3.20;;;24.50;75.20;;;;;;5029244;28;20436;-71
2023/06/14 12:30:22;;;;;;;3.77;2.80;;;24.50;76.20;;;;;;5028260;28;20432;-71
2023/06/14 12:32:48;;;;;;;4.00;3.60;;;24.60;74.00;;;;;;5029691;28;20421;-71
2023/06/14 12:35:14;;;;;;;5.47;2.60;;;24.70;75.70;;;;;;5030423;28;20513;-71
2023/06/14 12:37:40;;;;;;;4.67;3.27;;;24.80;77.90;;;;;;5030173;28;20424;-71
2023/06/14 12:40:07;;;;;;;3.00;2.80;;;24.80;74.30;;;;;;5027201;28;20409;-71
2023/06/14 12:42:33;;;;;;;3.47;3.00;;;24.80;75.80;;;;;;5026344;28;20189;-71
2023/06/14 12:44:59;;;;;;;3.20;2.87;;;24.90;73.70;;;;;;5026181;28;20426;-71
2023/06/14 12:47:25;;;;;;;8.33;3.50;;;24.80;73.40;;;;;;5028094;28;20459;-72
2023/06/14 12:49:52;;;;;;;3.37;3.17;;;24.80;72.00;;;;;;5024907;28;20786;-71